Atlantic Beach, FL (32233)

2:09 AM EDT on July 28, 2016 (GMT -0400)
Reed Island | | Change Station

Elev 10 ft 30.39 °N, 81.52 °W | Updated 12 seconds ago

Partly Cloudy
Partly Cloudy
80.8 °F
Feels Like 86 °F
N
0.9
Wind Variable Wind from SSW
Gusts 2.0 mph

Today
High -- | Low -- °F
--% Chance of Precip.
Yesterday
High -- | Low -- °F
Precip. -- in
Pressure 30.05 in
Visibility 10.0 miles
Clouds Few 6500 ft
Heat Index 86 °F
Dew Point 74 °F
Humidity 80%
Rainfall 0.00 in
Snow Depth Not available.
6:42 AM 8:22 PM
Waning Crescent, 35% visible
METAR KCRG 280553Z AUTO 22004KT 10SM FEW065 28/24 A3005 RMK AO2 SLP176 T02830244 10311 20283 53000
Pressure 30.05 in
Visibility 10.0 miles
Clouds Few 6500 ft
Heat Index 86 °F
Dew Point 74 °F
Humidity 80%
Rainfall 0.00 in
Snow Depth Not available.
6:42 AM 8:22 PM
Waning Crescent, 35% visible
METAR KCRG 280553Z AUTO 22004KT 10SM FEW065 28/24 A3005 RMK AO2 SLP176 T02830244 10311 20283 53000

10-Day Weather Forecast

Almanac

Astronomy

Jul. 28, 2016 Rise Set
Actual Time
Civil Twilight
Nautical Twilight
Astronomical Twilight
Moon
Length of Visible Light
Length of Day
Tomorrow will be .
, % of the Moon is Illuminated

Today's Extremes

State Highs State Lows

Community

WunderPhotos

Upload Photos

1,928,064 photos uploaded!

WunderBlog® & News

Nearby

Air Quality

  Air Quality AQ Index Pollutant
Not available.

Snow Depth

Station Depth Elevation

Earthquake Activity

City Distance Mag. Time & Date
Minimum magnitude displayed is 2.5.

Coastal Water Temperatures

Place Temperature

Stations

Nearby Weather Stations

Station Location Temp. Windchill Dew Point Humidity Wind Precip. Elev Updated Type
                   

Watches & Warnings

There are currently no watches in effect.